8AR1 weather

Totty Field Airport
Oakland, Arkansas, United States

Public forecast

Using degrees Fahrenheit for public forecast. Weather courtesy of forecast.io.

Closest aviation weather report (METAR) to Totty Field Airport

Closest report is Ozark Regional Airport, 11.0 nm (20.4 km) SE. Retrieved 2020/07/07 10:53 UTC (39 minutes ago):

KBPK 071053Z AUTO 00000KT 9SM CLR 22/21 A3000 RMK AO2 SLP149 T02170206

Closest aviation forecast (TAF) to Totty Field Airport

Closest forecast is Ozark Regional Airport, 11.0 nm (20.4 km) SE. Retrieved 2020/07/07 06:22 UTC (5 hours ago):

TAF KBPK 070520Z 0706/0806 VRB05KT P6SM FEW250 FM070900 VRB02KT 5SM BR SCT010 TEMPO 0710/0713 2SM BR BKN005 FM071400 14006KT P6SM VCSH SCT050